sensor_id;sensor_type;location;lat;lon;timestamp;P1;durP1;ratioP1;P2;durP2;ratioP2
79539;SDS011;68991;52.122;5.406;2023-07-28T00:01:15;6.97;;;3.30;;
79539;SDS011;68991;52.122;5.406;2023-07-28T00:03:42;5.40;;;2.90;;
79539;SDS011;68991;52.122;5.406;2023-07-28T00:06:08;7.07;;;3.40;;
79539;SDS011;68991;52.122;5.406;2023-07-28T00:08:35;4.10;;;2.67;;
79539;SDS011;68991;52.122;5.406;2023-07-28T00:11:01;6.47;;;3.20;;
79539;SDS011;68991;52.122;5.406;2023-07-28T00:13:28;6.45;;;3.33;;
79539;SDS011;68991;52.122;5.406;2023-07-28T00:15:54;5.10;;;2.83;;
79539;SDS011;68991;52.122;5.406;2023-07-28T00:18:21;6.40;;;3.70;;
79539;SDS011;68991;52.122;5.406;2023-07-28T00:20:47;6.35;;;3.15;;
79539;SDS011;68991;52.122;5.406;2023-07-28T00:23:14;7.45;;;3.30;;
79539;SDS011;68991;52.122;5.406;2023-07-28T00:25:40;6.07;;;3.10;;
79539;SDS011;68991;52.122;5.406;2023-07-28T00:28:07;5.95;;;2.70;;
79539;SDS011;68991;52.122;5.406;2023-07-28T00:30:33;5.75;;;3.03;;
79539;SDS011;68991;52.122;5.406;2023-07-28T00:33:00;6.47;;;2.92;;
79539;SDS011;68991;52.122;5.406;2023-07-28T00:35:26;5.13;;;2.88;;
79539;SDS011;68991;52.122;5.406;2023-07-28T00:37:53;6.15;;;3.28;;
79539;SDS011;68991;52.122;5.406;2023-07-28T00:40:19;6.72;;;3.10;;
79539;SDS011;68991;52.122;5.406;2023-07-28T00:42:47;5.65;;;2.85;;
79539;SDS011;68991;52.122;5.406;2023-07-28T00:45:14;7.88;;;3.35;;
79539;SDS011;68991;52.122;5.406;2023-07-28T00:47:41;5.07;;;2.80;;
79539;SDS011;68991;52.122;5.406;2023-07-28T00:50:08;5.75;;;3.03;;
79539;SDS011;68991;52.122;5.406;2023-07-28T00:52:37;6.10;;;3.10;;
79539;SDS011;68991;52.122;5.406;2023-07-28T00:55:05;6.25;;;3.05;;
79539;SDS011;68991;52.122;5.406;2023-07-28T00:57:33;5.18;;;3.00;;
79539;SDS011;68991;52.122;5.406;2023-07-28T01:00:00;7.30;;;2.97;;
79539;SDS011;68991;52.122;5.406;2023-07-28T01:02:27;5.43;;;3.50;;
79539;SDS011;68991;52.122;5.406;2023-07-28T01:04:54;6.30;;;3.00;;
79539;SDS011;68991;52.122;5.406;2023-07-28T01:07:26;5.95;;;3.00;;
79539;SDS011;68991;52.122;5.406;2023-07-28T01:12:36;5.82;;;3.20;;
79539;SDS011;68991;52.122;5.406;2023-07-28T01:15:03;4.28;;;3.00;;
79539;SDS011;68991;52.122;5.406;2023-07-28T01:17:30;5.68;;;2.58;;
79539;SDS011;68991;52.122;5.406;2023-07-28T01:19:56;4.78;;;2.90;;
79539;SDS011;68991;52.122;5.406;2023-07-28T01:25:29;6.65;;;3.30;;
79539;SDS011;68991;52.122;5.406;2023-07-28T01:28:05;6.03;;;3.28;;
79539;SDS011;68991;52.122;5.406;2023-07-28T01:30:32;5.88;;;2.92;;
79539;SDS011;68991;52.122;5.406;2023-07-28T01:32:59;8.23;;;2.92;;
79539;SDS011;68991;52.122;5.406;2023-07-28T01:35:25;5.60;;;2.78;;
79539;SDS011;68991;52.122;5.406;2023-07-28T01:37:52;4.80;;;2.80;;
79539;SDS011;68991;52.122;5.406;2023-07-28T01:40:19;5.43;;;2.70;;
79539;SDS011;68991;52.122;5.406;2023-07-28T01:42:46;5.28;;;2.53;;
79539;SDS011;68991;52.122;5.406;2023-07-28T01:45:12;5.55;;;2.97;;
79539;SDS011;68991;52.122;5.406;2023-07-28T01:47:39;7.88;;;3.03;;
79539;SDS011;68991;52.122;5.406;2023-07-28T01:50:05;5.63;;;2.70;;
79539;SDS011;68991;52.122;5.406;2023-07-28T01:52:32;5.53;;;2.67;;
79539;SDS011;68991;52.122;5.406;2023-07-28T01:54:59;8.13;;;3.03;;
79539;SDS011;68991;52.122;5.406;2023-07-28T01:57:26;5.05;;;2.80;;
79539;SDS011;68991;52.122;5.406;2023-07-28T01:59:54;4.47;;;2.58;;
79539;SDS011;68991;52.122;5.406;2023-07-28T02:02:20;6.43;;;2.90;;
79539;SDS011;68991;52.122;5.406;2023-07-28T02:04:47;5.65;;;2.75;;
79539;SDS011;68991;52.122;5.406;2023-07-28T02:07:13;6.20;;;2.70;;
79539;SDS011;68991;52.122;5.406;2023-07-28T02:09:40;6.65;;;3.05;;
79539;SDS011;68991;52.122;5.406;2023-07-28T02:12:06;5.40;;;2.83;;
79539;SDS011;68991;52.122;5.406;2023-07-28T02:14:33;4.80;;;2.90;;
79539;SDS011;68991;52.122;5.406;2023-07-28T02:16:59;4.63;;;2.70;;
79539;SDS011;68991;52.122;5.406;2023-07-28T02:19:26;4.97;;;2.70;;
79539;SDS011;68991;52.122;5.406;2023-07-28T02:21:52;4.35;;;2.40;;
79539;SDS011;68991;52.122;5.406;2023-07-28T02:24:19;4.80;;;2.70;;
79539;SDS011;68991;52.122;5.406;2023-07-28T02:26:45;6.78;;;2.78;;
79539;SDS011;68991;52.122;5.406;2023-07-28T02:29:12;6.03;;;2.75;;
79539;SDS011;68991;52.122;5.406;2023-07-28T02:31:38;5.25;;;2.60;;
79539;SDS011;68991;52.122;5.406;2023-07-28T02:34:04;4.88;;;2.63;;
79539;SDS011;68991;52.122;5.406;2023-07-28T02:36:31;5.40;;;2.97;;
79539;SDS011;68991;52.122;5.406;2023-07-28T02:38:58;4.80;;;2.75;;
79539;SDS011;68991;52.122;5.406;2023-07-28T02:41:24;4.50;;;2.63;;
79539;SDS011;68991;52.122;5.406;2023-07-28T02:43:51;6.30;;;2.83;;
79539;SDS011;68991;52.122;5.406;2023-07-28T02:46:17;4.15;;;2.40;;
79539;SDS011;68991;52.122;5.406;2023-07-28T02:48:44;4.07;;;2.10;;
79539;SDS011;68991;52.122;5.406;2023-07-28T02:51:10;5.35;;;2.92;;
79539;SDS011;68991;52.122;5.406;2023-07-28T02:53:37;4.75;;;2.63;;
79539;SDS011;68991;52.122;5.406;2023-07-28T02:56:03;4.82;;;2.60;;
79539;SDS011;68991;52.122;5.406;2023-07-28T02:58:30;4.63;;;2.70;;
79539;SDS011;68991;52.122;5.406;2023-07-28T03:00:56;3.38;;;2.25;;
79539;SDS011;68991;52.122;5.406;2023-07-28T03:03:23;5.32;;;2.65;;
79539;SDS011;68991;52.122;5.406;2023-07-28T03:05:51;4.57;;;2.90;;
79539;SDS011;68991;52.122;5.406;2023-07-28T03:08:18;4.45;;;2.55;;
79539;SDS011;68991;52.122;5.406;2023-07-28T03:10:45;4.72;;;2.67;;
79539;SDS011;68991;52.122;5.406;2023-07-28T03:13:12;6.30;;;3.03;;
79539;SDS011;68991;52.122;5.406;2023-07-28T03:15:38;3.78;;;2.42;;
79539;SDS011;68991;52.122;5.406;2023-07-28T03:18:05;4.18;;;2.03;;
79539;SDS011;68991;52.122;5.406;2023-07-28T03:20:31;5.20;;;2.90;;
79539;SDS011;68991;52.122;5.406;2023-07-28T03:22:58;6.15;;;2.60;;
79539;SDS011;68991;52.122;5.406;2023-07-28T03:25:24;4.82;;;2.58;;
79539;SDS011;68991;52.122;5.406;2023-07-28T03:27:51;5.03;;;2.85;;
79539;SDS011;68991;52.122;5.406;2023-07-28T03:30:19;3.72;;;2.30;;
79539;SDS011;68991;52.122;5.406;2023-07-28T03:32:45;5.13;;;2.78;;
79539;SDS011;68991;52.122;5.406;2023-07-28T03:35:12;6.57;;;2.90;;
79539;SDS011;68991;52.122;5.406;2023-07-28T03:37:39;4.53;;;2.22;;
79539;SDS011;68991;52.122;5.406;2023-07-28T03:40:06;5.97;;;2.55;;
79539;SDS011;68991;52.122;5.406;2023-07-28T03:42:33;5.50;;;2.53;;
79539;SDS011;68991;52.122;5.406;2023-07-28T03:45:00;4.60;;;2.40;;
79539;SDS011;68991;52.122;5.406;2023-07-28T03:47:27;5.25;;;2.35;;
79539;SDS011;68991;52.122;5.406;2023-07-28T03:49:53;4.38;;;2.40;;
79539;SDS011;68991;52.122;5.406;2023-07-28T03:52:19;3.88;;;2.63;;
79539;SDS011;68991;52.122;5.406;2023-07-28T03:54:46;5.90;;;2.67;;
79539;SDS011;68991;52.122;5.406;2023-07-28T03:57:13;4.35;;;2.28;;
79539;SDS011;68991;52.122;5.406;2023-07-28T03:59:39;4.70;;;2.50;;
79539;SDS011;68991;52.122;5.406;2023-07-28T04:02:05;4.45;;;2.55;;
79539;SDS011;68991;52.122;5.406;2023-07-28T04:04:32;5.15;;;2.80;;
79539;SDS011;68991;52.122;5.406;2023-07-28T04:06:58;4.78;;;2.63;;
79539;SDS011;68991;52.122;5.406;2023-07-28T04:09:25;4.20;;;2.83;;
79539;SDS011;68991;52.122;5.406;2023-07-28T04:11:53;4.68;;;2.85;;
79539;SDS011;68991;52.122;5.406;2023-07-28T04:14:19;4.93;;;2.67;;
79539;SDS011;68991;52.122;5.406;2023-07-28T04:16:46;9.15;;;2.65;;
79539;SDS011;68991;52.122;5.406;2023-07-28T04:19:12;5.65;;;2.63;;
79539;SDS011;68991;52.122;5.406;2023-07-28T04:21:39;6.80;;;3.15;;
79539;SDS011;68991;52.122;5.406;2023-07-28T04:24:07;5.47;;;2.28;;
79539;SDS011;68991;52.122;5.406;2023-07-28T04:26:34;3.78;;;2.17;;
79539;SDS011;68991;52.122;5.406;2023-07-28T04:29:01;4.28;;;2.65;;
79539;SDS011;68991;52.122;5.406;2023-07-28T04:31:28;5.05;;;2.38;;
79539;SDS011;68991;52.122;5.406;2023-07-28T04:33:54;8.02;;;3.42;;
79539;SDS011;68991;52.122;5.406;2023-07-28T04:36:21;6.35;;;3.83;;
79539;SDS011;68991;52.122;5.406;2023-07-28T04:38:47;6.15;;;3.20;;
79539;SDS011;68991;52.122;5.406;2023-07-28T04:41:14;5.57;;;3.47;;
79539;SDS011;68991;52.122;5.406;2023-07-28T04:43:40;8.70;;;4.00;;
79539;SDS011;68991;52.122;5.406;2023-07-28T04:46:06;8.48;;;3.92;;
79539;SDS011;68991;52.122;5.406;2023-07-28T04:48:33;6.35;;;3.80;;
79539;SDS011;68991;52.122;5.406;2023-07-28T04:50:59;7.80;;;4.72;;
79539;SDS011;68991;52.122;5.406;2023-07-28T04:53:26;8.40;;;4.35;;
79539;SDS011;68991;52.122;5.406;2023-07-28T04:55:53;8.82;;;4.07;;
79539;SDS011;68991;52.122;5.406;2023-07-28T04:58:19;9.25;;;4.25;;
79539;SDS011;68991;52.122;5.406;2023-07-28T05:00:45;15.23;;;5.43;;
79539;SDS011;68991;52.122;5.406;2023-07-28T05:03:12;9.38;;;4.60;;
79539;SDS011;68991;52.122;5.406;2023-07-28T05:05:38;11.52;;;4.35;;
79539;SDS011;68991;52.122;5.406;2023-07-28T05:08:09;9.52;;;4.88;;
79539;SDS011;68991;52.122;5.406;2023-07-28T05:10:35;9.68;;;4.38;;
79539;SDS011;68991;52.122;5.406;2023-07-28T05:13:02;12.02;;;5.03;;
79539;SDS011;68991;52.122;5.406;2023-07-28T05:15:31;11.40;;;4.65;;
79539;SDS011;68991;52.122;5.406;2023-07-28T05:17:58;13.35;;;5.15;;
79539;SDS011;68991;52.122;5.406;2023-07-28T05:20:24;9.73;;;4.35;;
79539;SDS011;68991;52.122;5.406;2023-07-28T05:22:51;8.93;;;4.35;;
79539;SDS011;68991;52.122;5.406;2023-07-28T05:25:17;9.98;;;5.00;;
79539;SDS011;68991;52.122;5.406;2023-07-28T05:27:44;10.13;;;4.78;;
79539;SDS011;68991;52.122;5.406;2023-07-28T05:30:10;10.13;;;4.38;;
79539;SDS011;68991;52.122;5.406;2023-07-28T05:32:37;7.93;;;3.70;;
79539;SDS011;68991;52.122;5.406;2023-07-28T05:35:03;9.25;;;4.78;;
79539;SDS011;68991;52.122;5.406;2023-07-28T05:37:30;11.90;;;4.75;;
79539;SDS011;68991;52.122;5.406;2023-07-28T05:39:57;11.75;;;4.97;;
79539;SDS011;68991;52.122;5.406;2023-07-28T05:42:23;8.68;;;4.03;;
79539;SDS011;68991;52.122;5.406;2023-07-28T05:44:50;9.25;;;4.80;;
79539;SDS011;68991;52.122;5.406;2023-07-28T05:47:19;8.38;;;4.63;;
79539;SDS011;68991;52.122;5.406;2023-07-28T05:49:45;8.55;;;4.70;;
79539;SDS011;68991;52.122;5.406;2023-07-28T05:52:12;8.02;;;4.28;;
79539;SDS011;68991;52.122;5.406;2023-07-28T05:54:38;9.00;;;4.32;;
79539;SDS011;68991;52.122;5.406;2023-07-28T05:57:05;7.38;;;3.80;;
79539;SDS011;68991;52.122;5.406;2023-07-28T05:59:32;11.32;;;4.70;;
79539;SDS011;68991;52.122;5.406;2023-07-28T06:01:58;13.45;;;4.22;;
79539;SDS011;68991;52.122;5.406;2023-07-28T06:04:24;9.98;;;3.70;;
79539;SDS011;68991;52.122;5.406;2023-07-28T06:06:51;10.13;;;4.85;;
79539;SDS011;68991;52.122;5.406;2023-07-28T06:09:18;7.78;;;3.80;;
79539;SDS011;68991;52.122;5.406;2023-07-28T06:11:44;6.53;;;3.67;;
79539;SDS011;68991;52.122;5.406;2023-07-28T06:14:11;7.97;;;4.00;;
79539;SDS011;68991;52.122;5.406;2023-07-28T06:16:37;9.02;;;4.32;;
79539;SDS011;68991;52.122;5.406;2023-07-28T06:19:04;9.07;;;4.28;;
79539;SDS011;68991;52.122;5.406;2023-07-28T06:21:30;7.40;;;4.00;;
79539;SDS011;68991;52.122;5.406;2023-07-28T06:23:57;10.10;;;4.72;;
79539;SDS011;68991;52.122;5.406;2023-07-28T06:26:23;6.95;;;3.58;;
79539;SDS011;68991;52.122;5.406;2023-07-28T06:28:50;7.18;;;3.45;;
79539;SDS011;68991;52.122;5.406;2023-07-28T06:31:16;5.97;;;3.65;;
79539;SDS011;68991;52.122;5.406;2023-07-28T06:33:43;7.07;;;3.88;;
79539;SDS011;68991;52.122;5.406;2023-07-28T06:36:10;8.27;;;3.70;;
79539;SDS011;68991;52.122;5.406;2023-07-28T06:38:36;7.18;;;3.83;;
79539;SDS011;68991;52.122;5.406;2023-07-28T06:41:03;6.95;;;3.78;;
79539;SDS011;68991;52.122;5.406;2023-07-28T06:43:29;7.88;;;3.88;;
79539;SDS011;68991;52.122;5.406;2023-07-28T06:45:56;8.85;;;3.88;;
79539;SDS011;68991;52.122;5.406;2023-07-28T06:48:22;8.95;;;3.38;;
79539;SDS011;68991;52.122;5.406;2023-07-28T06:50:49;7.05;;;3.67;;
79539;SDS011;68991;52.122;5.406;2023-07-28T06:53:15;6.60;;;3.58;;
79539;SDS011;68991;52.122;5.406;2023-07-28T06:55:43;5.38;;;3.53;;
79539;SDS011;68991;52.122;5.406;2023-07-28T06:58:09;7.28;;;3.60;;
79539;SDS011;68991;52.122;5.406;2023-07-28T07:00:36;8.30;;;3.75;;
79539;SDS011;68991;52.122;5.406;2023-07-28T07:03:03;6.68;;;3.40;;
79539;SDS011;68991;52.122;5.406;2023-07-28T07:05:30;9.35;;;3.92;;
79539;SDS011;68991;52.122;5.406;2023-07-28T07:07:56;6.93;;;3.58;;
79539;SDS011;68991;52.122;5.406;2023-07-28T07:10:23;6.57;;;3.63;;
79539;SDS011;68991;52.122;5.406;2023-07-28T07:12:51;6.35;;;3.85;;
79539;SDS011;68991;52.122;5.406;2023-07-28T07:15:17;6.32;;;3.58;;
79539;SDS011;68991;52.122;5.406;2023-07-28T07:17:44;5.30;;;3.67;;
79539;SDS011;68991;52.122;5.406;2023-07-28T07:20:10;7.28;;;3.75;;
79539;SDS011;68991;52.122;5.406;2023-07-28T07:22:37;7.00;;;3.70;;
79539;SDS011;68991;52.122;5.406;2023-07-28T07:25:04;6.72;;;3.28;;
79539;SDS011;68991;52.122;5.406;2023-07-28T07:27:31;7.05;;;3.28;;
79539;SDS011;68991;52.122;5.406;2023-07-28T07:29:57;5.68;;;3.55;;
79539;SDS011;68991;52.122;5.406;2023-07-28T07:32:24;7.13;;;3.55;;
79539;SDS011;68991;52.122;5.406;2023-07-28T07:34:50;6.05;;;3.70;;
79539;SDS011;68991;52.122;5.406;2023-07-28T07:37:19;6.47;;;3.70;;
79539;SDS011;68991;52.122;5.406;2023-07-28T07:39:45;6.78;;;3.58;;
79539;SDS011;68991;52.122;5.406;2023-07-28T07:42:12;8.30;;;3.40;;
79539;SDS011;68991;52.122;5.406;2023-07-28T07:44:40;4.93;;;3.30;;
79539;SDS011;68991;52.122;5.406;2023-07-28T07:47:13;5.20;;;3.40;;
79539;SDS011;68991;52.122;5.406;2023-07-28T07:49:41;7.88;;;3.67;;
79539;SDS011;68991;52.122;5.406;2023-07-28T07:52:09;5.90;;;3.65;;
79539;SDS011;68991;52.122;5.406;2023-07-28T07:54:36;5.30;;;3.13;;
79539;SDS011;68991;52.122;5.406;2023-07-28T07:57:03;5.80;;;3.55;;
79539;SDS011;68991;52.122;5.406;2023-07-28T07:59:30;4.85;;;3.40;;
79539;SDS011;68991;52.122;5.406;2023-07-28T08:02:01;8.05;;;3.50;;
79539;SDS011;68991;52.122;5.406;2023-07-28T08:04:29;4.88;;;3.05;;
79539;SDS011;68991;52.122;5.406;2023-07-28T08:06:56;4.68;;;2.60;;
79539;SDS011;68991;52.122;5.406;2023-07-28T08:09:22;5.85;;;3.47;;
79539;SDS011;68991;52.122;5.406;2023-07-28T08:11:49;5.05;;;2.67;;
79539;SDS011;68991;52.122;5.406;2023-07-28T08:14:15;5.60;;;3.40;;
79539;SDS011;68991;52.122;5.406;2023-07-28T08:16:42;5.90;;;3.17;;
79539;SDS011;68991;52.122;5.406;2023-07-28T08:19:08;5.53;;;3.05;;
79539;SDS011;68991;52.122;5.406;2023-07-28T08:21:35;4.30;;;3.17;;
79539;SDS011;68991;52.122;5.406;2023-07-28T08:24:03;6.55;;;3.22;;
79539;SDS011;68991;52.122;5.406;2023-07-28T08:26:30;5.25;;;2.80;;
79539;SDS011;68991;52.122;5.406;2023-07-28T08:28:57;5.10;;;3.00;;
79539;SDS011;68991;52.122;5.406;2023-07-28T08:31:23;5.00;;;3.13;;
79539;SDS011;68991;52.122;5.406;2023-07-28T08:33:50;5.75;;;3.40;;
79539;SDS011;68991;52.122;5.406;2023-07-28T08:36:16;7.72;;;3.28;;
79539;SDS011;68991;52.122;5.406;2023-07-28T08:38:43;4.68;;;2.97;;
79539;SDS011;68991;52.122;5.406;2023-07-28T08:41:12;4.78;;;3.15;;
79539;SDS011;68991;52.122;5.406;2023-07-28T08:43:40;4.18;;;2.80;;
79539;SDS011;68991;52.122;5.406;2023-07-28T08:46:07;7.40;;;3.28;;
79539;SDS011;68991;52.122;5.406;2023-07-28T08:48:34;5.65;;;3.58;;
79539;SDS011;68991;52.122;5.406;2023-07-28T08:51:01;5.72;;;3.00;;
79539;SDS011;68991;52.122;5.406;2023-07-28T08:53:28;5.93;;;3.47;;
79539;SDS011;68991;52.122;5.406;2023-07-28T08:55:55;3.83;;;2.70;;
79539;SDS011;68991;52.122;5.406;2023-07-28T08:58:21;5.13;;;3.20;;
79539;SDS011;68991;52.122;5.406;2023-07-28T09:00:50;5.55;;;3.20;;
79539;SDS011;68991;52.122;5.406;2023-07-28T09:03:19;5.03;;;3.15;;
79539;SDS011;68991;52.122;5.406;2023-07-28T09:05:45;4.20;;;2.75;;
79539;SDS011;68991;52.122;5.406;2023-07-28T09:08:13;4.18;;;2.78;;
79539;SDS011;68991;52.122;5.406;2023-07-28T09:10:49;4.22;;;2.88;;
79539;SDS011;68991;52.122;5.406;2023-07-28T09:13:17;4.18;;;2.90;;
79539;SDS011;68991;52.122;5.406;2023-07-28T09:15:45;3.70;;;2.50;;
79539;SDS011;68991;52.122;5.406;2023-07-28T09:18:12;4.60;;;2.83;;
79539;SDS011;68991;52.122;5.406;2023-07-28T09:20:41;3.78;;;2.70;;
79539;SDS011;68991;52.122;5.406;2023-07-28T09:23:08;4.18;;;2.53;;
79539;SDS011;68991;52.122;5.406;2023-07-28T09:25:36;4.40;;;2.63;;
79539;SDS011;68991;52.122;5.406;2023-07-28T09:28:04;3.85;;;2.50;;
79539;SDS011;68991;52.122;5.406;2023-07-28T09:30:49;4.63;;;2.90;;
79539;SDS011;68991;52.122;5.406;2023-07-28T09:33:32;3.88;;;2.60;;
79539;SDS011;68991;52.122;5.406;2023-07-28T09:36:13;4.65;;;2.67;;
79539;SDS011;68991;52.122;5.406;2023-07-28T09:38:43;3.67;;;2.50;;
79539;SDS011;68991;52.122;5.406;2023-07-28T09:41:10;6.15;;;2.80;;
79539;SDS011;68991;52.122;5.406;2023-07-28T09:43:38;5.40;;;2.67;;
79539;SDS011;68991;52.122;5.406;2023-07-28T09:46:09;3.72;;;2.50;;
79539;SDS011;68991;52.122;5.406;2023-07-28T09:48:37;4.63;;;2.75;;
79539;SDS011;68991;52.122;5.406;2023-07-28T09:51:06;4.38;;;2.55;;
79539;SDS011;68991;52.122;5.406;2023-07-28T09:53:40;4.45;;;2.75;;
79539;SDS011;68991;52.122;5.406;2023-07-28T09:56:10;4.10;;;2.53;;
79539;SDS011;68991;52.122;5.406;2023-07-28T09:58:40;2.63;;;2.20;;
79539;SDS011;68991;52.122;5.406;2023-07-28T10:01:09;3.17;;;2.35;;
79539;SDS011;68991;52.122;5.406;2023-07-28T10:03:36;4.47;;;2.33;;
79539;SDS011;68991;52.122;5.406;2023-07-28T10:06:03;3.47;;;2.33;;
79539;SDS011;68991;52.122;5.406;2023-07-28T10:08:31;3.80;;;2.63;;
79539;SDS011;68991;52.122;5.406;2023-07-28T10:10:58;3.88;;;2.58;;
79539;SDS011;68991;52.122;5.406;2023-07-28T10:13:27;2.92;;;2.35;;
79539;SDS011;68991;52.122;5.406;2023-07-28T10:15:54;4.97;;;2.47;;
79539;SDS011;68991;52.122;5.406;2023-07-28T10:18:21;3.85;;;2.40;;
79539;SDS011;68991;52.122;5.406;2023-07-28T10:20:48;2.85;;;2.30;;
79539;SDS011;68991;52.122;5.406;2023-07-28T10:23:22;4.93;;;2.50;;
79539;SDS011;68991;52.122;5.406;2023-07-28T10:25:58;2.92;;;2.25;;
79539;SDS011;68991;52.122;5.406;2023-07-28T10:28:28;3.35;;;2.50;;
79539;SDS011;68991;52.122;5.406;2023-07-28T10:31:01;3.15;;;2.17;;
79539;SDS011;68991;52.122;5.406;2023-07-28T10:33:31;3.58;;;2.30;;
79539;SDS011;68991;52.122;5.406;2023-07-28T10:36:11;3.80;;;2.38;;
79539;SDS011;68991;52.122;5.406;2023-07-28T10:38:38;3.70;;;2.28;;
79539;SDS011;68991;52.122;5.406;2023-07-28T10:41:06;4.05;;;2.40;;
79539;SDS011;68991;52.122;5.406;2023-07-28T10:43:45;3.30;;;2.22;;
79539;SDS011;68991;52.122;5.406;2023-07-28T10:46:14;3.25;;;2.20;;
79539;SDS011;68991;52.122;5.406;2023-07-28T10:48:43;3.10;;;2.00;;
79539;SDS011;68991;52.122;5.406;2023-07-28T10:51:24;2.92;;;2.08;;
79539;SDS011;68991;52.122;5.406;2023-07-28T10:53:59;4.63;;;2.45;;
79539;SDS011;68991;52.122;5.406;2023-07-28T10:56:28;3.70;;;2.30;;
79539;SDS011;68991;52.122;5.406;2023-07-28T10:58:55;3.85;;;2.20;;
79539;SDS011;68991;52.122;5.406;2023-07-28T11:04:19;3.92;;;2.22;;
79539;SDS011;68991;52.122;5.406;2023-07-28T11:06:47;3.75;;;2.40;;
79539;SDS011;68991;52.122;5.406;2023-07-28T11:09:19;3.10;;;2.30;;
79539;SDS011;68991;52.122;5.406;2023-07-28T11:11:48;3.28;;;1.88;;
79539;SDS011;68991;52.122;5.406;2023-07-28T11:14:16;3.28;;;2.30;;
79539;SDS011;68991;52.122;5.406;2023-07-28T11:16:43;3.08;;;2.38;;
79539;SDS011;68991;52.122;5.406;2023-07-28T11:19:17;5.03;;;2.17;;
79539;SDS011;68991;52.122;5.406;2023-07-28T11:21:48;3.75;;;2.22;;
79539;SDS011;68991;52.122;5.406;2023-07-28T11:24:18;4.53;;;2.20;;
79539;SDS011;68991;52.122;5.406;2023-07-28T11:26:45;3.03;;;2.22;;
79539;SDS011;68991;52.122;5.406;2023-07-28T11:29:12;3.67;;;2.22;;
79539;SDS011;68991;52.122;5.406;2023-07-28T11:31:40;3.22;;;2.17;;
79539;SDS011;68991;52.122;5.406;2023-07-28T11:34:16;2.50;;;2.15;;
79539;SDS011;68991;52.122;5.406;2023-07-28T11:36:44;3.00;;;2.15;;
79539;SDS011;68991;52.122;5.406;2023-07-28T11:39:11;3.22;;;2.53;;
79539;SDS011;68991;52.122;5.406;2023-07-28T11:41:38;4.90;;;2.42;;
79539;SDS011;68991;52.122;5.406;2023-07-28T11:44:06;2.90;;;2.08;;
79539;SDS011;68991;52.122;5.406;2023-07-28T11:49:10;2.97;;;2.33;;
79539;SDS011;68991;52.122;5.406;2023-07-28T11:51:51;5.65;;;2.60;;
79539;SDS011;68991;52.122;5.406;2023-07-28T11:54:24;5.00;;;2.50;;
79539;SDS011;68991;52.122;5.406;2023-07-28T11:56:54;3.55;;;2.50;;
79539;SDS011;68991;52.122;5.406;2023-07-28T11:59:21;3.75;;;2.55;;
79539;SDS011;68991;52.122;5.406;2023-07-28T12:04:25;6.78;;;4.13;;
79539;SDS011;68991;52.122;5.406;2023-07-28T12:07:00;4.93;;;4.25;;
79539;SDS011;68991;52.122;5.406;2023-07-28T12:09:54;6.85;;;4.00;;
79539;SDS011;68991;52.122;5.406;2023-07-28T12:12:30;5.40;;;4.07;;
79539;SDS011;68991;52.122;5.406;2023-07-28T12:15:27;5.63;;;4.47;;
79539;SDS011;68991;52.122;5.406;2023-07-28T12:20:33;4.75;;;4.03;;
79539;SDS011;68991;52.122;5.406;2023-07-28T12:23:13;5.90;;;5.30;;
79539;SDS011;68991;52.122;5.406;2023-07-28T12:25:48;7.20;;;4.20;;
79539;SDS011;68991;52.122;5.406;2023-07-28T12:28:17;5.40;;;4.07;;
79539;SDS011;68991;52.122;5.406;2023-07-28T12:30:45;4.93;;;3.78;;
79539;SDS011;68991;52.122;5.406;2023-07-28T12:33:15;4.25;;;3.42;;
79539;SDS011;68991;52.122;5.406;2023-07-28T12:35:44;5.32;;;3.90;;
79539;SDS011;68991;52.122;5.406;2023-07-28T12:38:14;4.57;;;3.70;;
79539;SDS011;68991;52.122;5.406;2023-07-28T12:40:43;4.80;;;3.70;;
79539;SDS011;68991;52.122;5.406;2023-07-28T12:43:13;6.22;;;3.58;;
79539;SDS011;68991;52.122;5.406;2023-07-28T12:45:42;4.93;;;3.50;;
79539;SDS011;68991;52.122;5.406;2023-07-28T12:48:11;5.18;;;3.90;;
79539;SDS011;68991;52.122;5.406;2023-07-28T12:50:46;4.78;;;3.60;;
79539;SDS011;68991;52.122;5.406;2023-07-28T12:53:13;4.07;;;3.33;;
79539;SDS011;68991;52.122;5.406;2023-07-28T12:55:45;4.97;;;3.78;;
79539;SDS011;68991;52.122;5.406;2023-07-28T12:58:14;7.22;;;4.07;;
79539;SDS011;68991;52.122;5.406;2023-07-28T13:00:44;4.35;;;3.53;;
79539;SDS011;68991;52.122;5.406;2023-07-28T13:03:13;6.20;;;3.63;;
79539;SDS011;68991;52.122;5.406;2023-07-28T13:05:40;7.10;;;3.45;;
79539;SDS011;68991;52.122;5.406;2023-07-28T13:08:10;4.70;;;3.78;;
79539;SDS011;68991;52.122;5.406;2023-07-28T13:10:36;5.60;;;3.88;;
79539;SDS011;68991;52.122;5.406;2023-07-28T13:13:05;6.50;;;4.50;;
79539;SDS011;68991;52.122;5.406;2023-07-28T13:15:37;5.32;;;3.53;;
79539;SDS011;68991;52.122;5.406;2023-07-28T13:18:04;6.60;;;3.90;;
79539;SDS011;68991;52.122;5.406;2023-07-28T13:20:30;5.60;;;3.42;;
79539;SDS011;68991;52.122;5.406;2023-07-28T13:22:57;4.72;;;3.63;;
79539;SDS011;68991;52.122;5.406;2023-07-28T13:25:23;5.32;;;3.22;;
79539;SDS011;68991;52.122;5.406;2023-07-28T13:27:50;4.20;;;3.47;;
79539;SDS011;68991;52.122;5.406;2023-07-28T13:30:16;4.18;;;2.90;;
79539;SDS011;68991;52.122;5.406;2023-07-28T13:32:43;4.28;;;3.15;;
79539;SDS011;68991;52.122;5.406;2023-07-28T13:35:09;4.78;;;3.30;;
79539;SDS011;68991;52.122;5.406;2023-07-28T13:37:36;3.97;;;2.70;;
79539;SDS011;68991;52.122;5.406;2023-07-28T13:40:02;5.85;;;3.58;;
79539;SDS011;68991;52.122;5.406;2023-07-28T13:42:29;4.20;;;3.10;;
79539;SDS011;68991;52.122;5.406;2023-07-28T13:44:56;3.92;;;3.10;;
79539;SDS011;68991;52.122;5.406;2023-07-28T13:47:24;3.75;;;2.80;;
79539;SDS011;68991;52.122;5.406;2023-07-28T13:49:51;4.20;;;2.70;;
79539;SDS011;68991;52.122;5.406;2023-07-28T13:52:17;3.90;;;2.80;;
79539;SDS011;68991;52.122;5.406;2023-07-28T13:54:47;6.15;;;3.45;;
79539;SDS011;68991;52.122;5.406;2023-07-28T13:57:17;3.25;;;2.95;;
79539;SDS011;68991;52.122;5.406;2023-07-28T13:59:44;4.43;;;3.08;;
79539;SDS011;68991;52.122;5.406;2023-07-28T14:02:11;4.20;;;3.20;;
79539;SDS011;68991;52.122;5.406;2023-07-28T14:04:38;3.55;;;2.92;;
79539;SDS011;68991;52.122;5.406;2023-07-28T14:07:04;5.18;;;3.03;;
79539;SDS011;68991;52.122;5.406;2023-07-28T14:09:31;3.97;;;3.17;;
79539;SDS011;68991;52.122;5.406;2023-07-28T14:11:57;4.63;;;2.80;;
79539;SDS011;68991;52.122;5.406;2023-07-28T14:14:24;3.92;;;2.95;;
79539;SDS011;68991;52.122;5.406;2023-07-28T14:16:50;4.55;;;2.42;;
79539;SDS011;68991;52.122;5.406;2023-07-28T14:19:17;6.88;;;3.08;;
79539;SDS011;68991;52.122;5.406;2023-07-28T14:21:44;4.63;;;2.88;;
79539;SDS011;68991;52.122;5.406;2023-07-28T14:24:10;5.53;;;3.00;;
79539;SDS011;68991;52.122;5.406;2023-07-28T14:26:37;4.30;;;3.05;;
79539;SDS011;68991;52.122;5.406;2023-07-28T14:29:04;3.60;;;2.95;;
79539;SDS011;68991;52.122;5.406;2023-07-28T14:31:31;4.72;;;3.00;;
79539;SDS011;68991;52.122;5.406;2023-07-28T14:33:57;5.30;;;2.85;;
79539;SDS011;68991;52.122;5.406;2023-07-28T14:36:24;6.35;;;3.08;;
79539;SDS011;68991;52.122;5.406;2023-07-28T14:38:50;4.57;;;2.88;;
79539;SDS011;68991;52.122;5.406;2023-07-28T14:41:17;3.78;;;2.83;;
79539;SDS011;68991;52.122;5.406;2023-07-28T14:43:43;4.22;;;2.70;;
79539;SDS011;68991;52.122;5.406;2023-07-28T14:46:10;6.88;;;2.65;;
79539;SDS011;68991;52.122;5.406;2023-07-28T14:48:36;7.43;;;2.80;;
79539;SDS011;68991;52.122;5.406;2023-07-28T14:51:03;6.70;;;3.10;;
79539;SDS011;68991;52.122;5.406;2023-07-28T14:53:33;6.18;;;2.85;;
79539;SDS011;68991;52.122;5.406;2023-07-28T14:56:02;5.05;;;2.75;;
79539;SDS011;68991;52.122;5.406;2023-07-28T14:58:30;3.17;;;2.30;;
79539;SDS011;68991;52.122;5.406;2023-07-28T15:00:57;3.03;;;2.47;;
79539;SDS011;68991;52.122;5.406;2023-07-28T15:03:27;7.40;;;2.92;;
79539;SDS011;68991;52.122;5.406;2023-07-28T15:05:55;4.72;;;2.90;;
79539;SDS011;68991;52.122;5.406;2023-07-28T15:08:21;5.00;;;3.00;;